Time;durP1;ratioP1;P1;durP2;ratioP2;P2;SDS_P1;SDS_P2;PMS_P1;PMS_P2;Temp;Humidity;BMP_temperature;BMP_pressure;BME280_temperature;BME280_humidity;BME280_pressure;Samples;Min_cycle;Max_cycle;Signal;HPM_P1;HPM_P2
2023/11/27 00:01:00;;;;;;;;;;;;;;;4.86;72.37;97563.41;4991468;28;19998;-72
2023/11/27 00:03:48;;;;;;;;;;;;;;;4.98;72.58;97561.91;4990435;28;19926;-73
2023/11/27 00:06:36;;;;;;;;;;;;;;;5.00;72.01;97559.75;4984886;28;19937;-73
2023/11/27 00:09:24;;;;;;;;;;;;;;;4.93;72.06;97553.09;4989072;28;19933;-73
2023/11/27 00:12:12;;;;;;;;;;;;;;;4.90;72.41;97551.78;4990370;28;19926;-73
2023/11/27 00:15:02;;;;;;;;;;;;;;;4.84;72.58;97549.41;4994213;28;19953;-72
2023/11/27 00:17:50;;;;;;;;;;;;;;;4.81;72.38;97555.38;4987159;28;20598;-72
2023/11/27 00:20:38;;;;;;;;;;;;;;;4.85;72.54;97543.75;4991053;28;20299;-73
2023/11/27 00:23:26;;;;;;;;;;;;;;;4.90;71.93;97548.25;4988965;28;19981;-72
2023/11/27 00:26:15;;;;;;;;;;;;;;;4.96;71.91;97555.22;4992588;28;20031;-73
2023/11/27 00:29:12;;;;;;;;;;;;;;;5.00;71.74;97554.34;4989171;28;19926;-73
2023/11/27 00:32:01;;;;;;;;;;;;;;;5.07;71.71;97548.66;4986374;28;19933;-73
2023/11/27 00:34:50;;;;;;;;;;;;;;;5.05;71.33;97550.00;4975268;28;19930;-73
2023/11/27 00:37:38;;;;;;;;;;;;;;;4.96;71.02;97547.16;4978580;28;19933;-73
2023/11/27 00:40:28;;;;;;;;;;;;;;;4.90;71.14;97545.56;5004534;28;19925;-72
2023/11/27 00:43:16;;;;;;;;;;;;;;;4.88;71.59;97540.47;5005524;28;19941;-72
2023/11/27 00:46:04;;;;;;;;;;;;;;;5.04;71.01;97545.72;5002063;28;19936;-74
2023/11/27 00:48:54;;;;;;;;;;;;;;;5.01;70.66;97533.66;5006250;28;20084;-73
2023/11/27 00:51:42;;;;;;;;;;;;;;;4.90;71.32;97538.31;4991808;28;19926;-73
2023/11/27 00:54:30;;;;;;;;;;;;;;;4.97;70.94;97537.97;5007557;28;19932;-73
2023/11/27 00:57:18;;;;;;;;;;;;;;;4.92;71.24;97527.25;5003992;28;20371;-73
2023/11/27 01:00:09;;;;;;;;;;;;;;;4.62;71.47;97529.13;5006836;28;19926;-73
2023/11/27 01:02:59;;;;;;;;;;;;;;;4.66;72.05;97535.56;5004667;28;19925;-73
2023/11/27 01:05:51;;;;;;;;;;;;;;;4.75;71.31;97519.63;5009908;28;20039;-73
2023/11/27 01:08:40;;;;;;;;;;;;;;;4.90;71.43;97526.72;5004332;28;19925;-72
2023/11/27 01:11:28;;;;;;;;;;;;;;;4.88;71.05;97515.44;5008590;28;20294;-72
2023/11/27 01:14:16;;;;;;;;;;;;;;;4.95;71.11;97524.81;5007088;28;19933;-72
2023/11/27 01:17:04;;;;;;;;;;;;;;;4.86;70.76;97523.81;5010107;28;20031;-73
2023/11/27 01:19:52;;;;;;;;;;;;;;;4.87;70.87;97522.72;5005335;28;20283;-72
2023/11/27 01:22:42;;;;;;;;;;;;;;;4.78;70.99;97529.00;5010515;28;20269;-73
2023/11/27 01:25:30;;;;;;;;;;;;;;;4.81;70.86;97525.75;4988870;28;19934;-72
2023/11/27 01:28:18;;;;;;;;;;;;;;;4.91;70.41;97529.16;5006870;28;19929;-72
2023/11/27 01:31:06;;;;;;;;;;;;;;;4.87;70.49;97527.31;5006319;28;20012;-72
2023/11/27 01:33:54;;;;;;;;;;;;;;;4.98;70.22;97521.53;5004531;28;19934;-72
2023/11/27 01:36:43;;;;;;;;;;;;;;;5.16;70.01;97519.19;4989685;28;20419;-73
2023/11/27 01:39:32;;;;;;;;;;;;;;;5.09;70.08;97513.38;4993536;28;20458;-73
2023/11/27 01:42:21;;;;;;;;;;;;;;;5.08;69.41;97509.88;5006713;28;19925;-72
2023/11/27 01:45:09;;;;;;;;;;;;;;;5.18;68.96;97504.38;5005314;28;19925;-72
2023/11/27 01:47:57;;;;;;;;;;;;;;;4.96;69.85;97504.09;4995829;28;19936;-73
2023/11/27 01:50:45;;;;;;;;;;;;;;;5.09;69.49;97502.59;4993140;28;19933;-73
2023/11/27 01:53:33;;;;;;;;;;;;;;;5.21;68.86;97490.31;4992085;28;19957;-72
2023/11/27 01:56:23;;;;;;;;;;;;;;;5.30;69.03;97487.00;5007166;28;20112;-73
2023/11/27 01:59:11;;;;;;;;;;;;;;;5.15;68.95;97490.69;5009025;28;19925;-73
2023/11/27 02:01:59;;;;;;;;;;;;;;;5.18;68.62;97488.22;5009169;28;19937;-73
2023/11/27 02:04:47;;;;;;;;;;;;;;;4.96;68.90;97490.63;5004141;28;19936;-72
2023/11/27 02:07:36;;;;;;;;;;;;;;;5.10;68.90;97477.25;5005644;28;19933;-72
2023/11/27 02:10:24;;;;;;;;;;;;;;;4.65;69.25;97477.47;4991779;28;20129;-72
2023/11/27 02:13:14;;;;;;;;;;;;;;;5.03;69.58;97469.53;5006493;28;20019;-72
2023/11/27 02:16:03;;;;;;;;;;;;;;;4.93;69.39;97472.34;4992901;28;19933;-72
2023/11/27 02:18:51;;;;;;;;;;;;;;;4.99;69.04;97474.69;4992059;28;19925;-72
2023/11/27 02:21:39;;;;;;;;;;;;;;;5.02;69.61;97465.25;5005128;28;19971;-72
2023/11/27 02:24:28;;;;;;;;;;;;;;;4.93;70.62;97472.34;5005607;28;20399;-72
2023/11/27 02:27:16;;;;;;;;;;;;;;;4.92;69.33;97459.97;5005981;28;19925;-72
2023/11/27 02:30:05;;;;;;;;;;;;;;;4.75;69.57;97460.41;5005880;28;20371;-72
2023/11/27 02:32:54;;;;;;;;;;;;;;;4.72;70.02;97460.97;5008694;28;20343;-72
2023/11/27 02:35:42;;;;;;;;;;;;;;;4.87;69.19;97452.75;5007498;28;20388;-72
2023/11/27 02:38:31;;;;;;;;;;;;;;;4.98;68.75;97448.06;5006962;28;19925;-72
2023/11/27 02:41:20;;;;;;;;;;;;;;;5.08;68.91;97445.25;5006034;28;19980;-72
2023/11/27 02:44:09;;;;;;;;;;;;;;;5.24;68.18;97438.59;4993769;28;19936;-73
2023/11/27 02:46:57;;;;;;;;;;;;;;;5.32;68.00;97436.34;5004068;28;20407;-72
2023/11/27 02:49:45;;;;;;;;;;;;;;;5.32;67.31;97434.44;5008599;28;20052;-72
2023/11/27 02:52:33;;;;;;;;;;;;;;;5.47;67.34;97436.16;5009540;28;19925;-72
2023/11/27 02:55:21;;;;;;;;;;;;;;;5.48;67.20;97429.66;5006347;28;19926;-73
2023/11/27 02:58:11;;;;;;;;;;;;;;;5.35;67.01;97425.00;5008821;28;20394;-73
2023/11/27 03:01:00;;;;;;;;;;;;;;;5.42;67.19;97412.78;5007760;28;20299;-73
2023/11/27 03:03:48;;;;;;;;;;;;;;;5.10;68.15;97410.75;4994156;28;20284;-73
2023/11/27 03:06:37;;;;;;;;;;;;;;;5.30;67.28;97409.69;5005791;28;19934;-72
2023/11/27 03:09:26;;;;;;;;;;;;;;;5.37;67.18;97406.66;5006727;28;19925;-72
2023/11/27 03:12:14;;;;;;;;;;;;;;;4.85;68.38;97397.63;5006019;28;19957;-72
2023/11/27 03:15:03;;;;;;;;;;;;;;;5.10;67.45;97402.66;4983659;28;20387;-72
2023/11/27 03:17:51;;;;;;;;;;;;;;;5.10;67.76;97397.28;5009145;28;19930;-72
2023/11/27 03:20:39;;;;;;;;;;;;;;;4.83;68.33;97397.06;4992738;28;20067;-72
2023/11/27 03:23:27;;;;;;;;;;;;;;;4.89;68.88;97390.53;5002809;28;19944;-72
2023/11/27 03:26:16;;;;;;;;;;;;;;;5.08;68.28;97394.09;5003574;28;19926;-73
2023/11/27 03:29:04;;;;;;;;;;;;;;;5.03;68.20;97387.97;5000899;28;19932;-73
2023/11/27 03:31:54;;;;;;;;;;;;;;;5.08;68.41;97383.31;5006478;28;19972;-73
2023/11/27 03:34:42;;;;;;;;;;;;;;;5.00;68.17;97387.44;5007397;28;19929;-72
2023/11/27 03:37:30;;;;;;;;;;;;;;;4.60;68.62;97377.94;5003896;28;19925;-72
2023/11/27 03:40:19;;;;;;;;;;;;;;;4.97;68.39;97385.34;4991763;28;19941;-73
2023/11/27 03:43:07;;;;;;;;;;;;;;;5.20;67.66;97383.69;5009366;28;19925;-73
2023/11/27 03:45:56;;;;;;;;;;;;;;;4.87;68.18;97387.34;5011165;28;19937;-73
2023/11/27 03:48:46;;;;;;;;;;;;;;;4.95;67.66;97376.75;4996120;28;19932;-72
2023/11/27 03:51:34;;;;;;;;;;;;;;;5.19;67.33;97381.31;5012885;28;20004;-73
2023/11/27 03:54:22;;;;;;;;;;;;;;;5.28;66.55;97379.56;4997084;28;19976;-72
2023/11/27 03:57:10;;;;;;;;;;;;;;;4.86;68.50;97375.00;4995612;28;19925;-73
2023/11/27 03:59:58;;;;;;;;;;;;;;;5.06;67.48;97379.31;5010754;28;19971;-72
2023/11/27 04:02:46;;;;;;;;;;;;;;;5.06;67.98;97379.31;5009398;28;19929;-72
2023/11/27 04:05:35;;;;;;;;;;;;;;;5.25;67.33;97378.25;4993093;28;19931;-72
2023/11/27 04:08:23;;;;;;;;;;;;;;;5.31;66.42;97370.91;5011739;28;19948;-72
2023/11/27 04:11:13;;;;;;;;;;;;;;;5.29;66.61;97373.09;5007705;28;20100;-72
2023/11/27 04:14:03;;;;;;;;;;;;;;;5.36;66.47;97365.44;5010910;28;19932;-73
2023/11/27 04:16:51;;;;;;;;;;;;;;;5.05;67.70;97370.44;5000800;28;20253;-72
2023/11/27 04:19:39;;;;;;;;;;;;;;;5.12;67.40;97367.41;5010870;28;19934;-72
2023/11/27 04:22:28;;;;;;;;;;;;;;;5.02;67.42;97362.94;5007999;28;20522;-73
2023/11/27 04:25:16;;;;;;;;;;;;;;;5.21;67.10;97363.75;5011496;28;19932;-72
2023/11/27 04:28:04;;;;;;;;;;;;;;;4.50;69.16;97359.22;5010256;28;20354;-72
2023/11/27 04:30:52;;;;;;;;;;;;;;;4.99;67.98;97355.44;5001445;28;20326;-72
2023/11/27 04:33:41;;;;;;;;;;;;;;;5.04;67.44;97355.38;5008421;28;19926;-73
2023/11/27 04:36:29;;;;;;;;;;;;;;;5.17;67.08;97357.38;5009330;28;20381;-72
2023/11/27 04:39:18;;;;;;;;;;;;;;;5.21;67.11;97349.50;5011747;28;19948;-73
2023/11/27 04:42:06;;;;;;;;;;;;;;;4.78;68.20;97346.81;5004688;28;19933;-72
2023/11/27 04:44:54;;;;;;;;;;;;;;;4.76;68.42;97348.19;4996492;28;19926;-72
2023/11/27 04:47:42;;;;;;;;;;;;;;;5.02;68.27;97346.00;5006528;28;19948;-72
2023/11/27 04:50:30;;;;;;;;;;;;;;;4.93;68.09;97337.75;5010693;28;20314;-72
2023/11/27 04:53:19;;;;;;;;;;;;;;;5.13;67.55;97342.88;5008013;28;20379;-72
2023/11/27 04:56:09;;;;;;;;;;;;;;;4.84;68.45;97334.09;5007397;28;19929;-72
2023/11/27 04:58:56;;;;;;;;;;;;;;;4.78;68.35;97335.25;5004861;28;20056;-73
2023/11/27 05:01:45;;;;;;;;;;;;;;;4.98;67.56;97330.41;5007648;28;19929;-72
2023/11/27 05:04:33;;;;;;;;;;;;;;;5.11;67.49;97331.56;4993067;28;19933;-73
2023/11/27 05:07:21;;;;;;;;;;;;;;;5.24;67.22;97324.69;5006382;28;20449;-72
2023/11/27 05:10:11;;;;;;;;;;;;;;;5.04;66.97;97320.38;5006351;28;19929;-72
2023/11/27 05:13:00;;;;;;;;;;;;;;;5.15;67.63;97311.06;4996809;28;19925;-72
2023/11/27 05:15:51;;;;;;;;;;;;;;;5.12;67.09;97306.28;5009691;28;19929;-73
2023/11/27 05:18:39;;;;;;;;;;;;;;;5.09;66.24;97304.16;5005419;28;19933;-73
2023/11/27 05:21:29;;;;;;;;;;;;;;;5.40;65.82;97301.81;5011062;28;19926;-73
2023/11/27 05:24:17;;;;;;;;;;;;;;;5.69;65.47;97300.81;5006333;28;19925;-73
2023/11/27 05:27:05;;;;;;;;;;;;;;;5.65;65.19;97295.25;5006530;28;19925;-73
2023/11/27 05:29:54;;;;;;;;;;;;;;;5.37;65.56;97294.31;5008678;28;19938;-72
2023/11/27 05:32:43;;;;;;;;;;;;;;;5.23;65.74;97288.88;5001461;28;19925;-72
2023/11/27 05:35:31;;;;;;;;;;;;;;;5.59;64.91;97285.63;5009564;28;19925;-72
2023/11/27 05:38:19;;;;;;;;;;;;;;;5.51;65.41;97292.50;4996812;28;20015;-73
2023/11/27 05:41:11;;;;;;;;;;;;;;;5.53;65.79;97286.78;5004235;28;20362;-73
2023/11/27 05:43:59;;;;;;;;;;;;;;;5.41;65.70;97287.25;5009926;28;19933;-73
2023/11/27 05:46:49;;;;;;;;;;;;;;;5.29;66.52;97286.09;5005984;28;19980;-72
2023/11/27 05:49:37;;;;;;;;;;;;;;;5.28;67.09;97285.31;5008608;28;20413;-71
2023/11/27 05:52:26;;;;;;;;;;;;;;;5.25;66.89;97286.69;5008352;28;19936;-72
2023/11/27 05:55:15;;;;;;;;;;;;;;;5.43;66.75;97276.19;5007813;28;20004;-72
2023/11/27 05:58:04;;;;;;;;;;;;;;;5.46;66.06;97265.63;5009167;28;19933;-72
2023/11/27 06:00:54;;;;;;;;;;;;;;;5.35;66.02;97274.97;4995041;28;19926;-71
2023/11/27 06:03:43;;;;;;;;;;;;;;;5.55;65.57;97273.84;5002578;28;19933;-72
2023/11/27 06:06:31;;;;;;;;;;;;;;;5.50;65.52;97268.53;5007752;28;19929;-71
2023/11/27 06:09:21;;;;;;;;;;;;;;;5.46;65.94;97260.22;4990164;28;19932;-72
2023/11/27 06:12:10;;;;;;;;;;;;;;;5.37;66.03;97267.38;5004343;28;19926;-72
2023/11/27 06:14:58;;;;;;;;;;;;;;;5.56;65.69;97261.97;5006736;28;19932;-71
2023/11/27 06:17:46;;;;;;;;;;;;;;;5.29;65.99;97257.28;5004673;28;19933;-72
2023/11/27 06:20:35;;;;;;;;;;;;;;;5.50;65.61;97258.56;5006801;28;19926;-72
2023/11/27 06:23:24;;;;;;;;;;;;;;;5.55;66.00;97255.00;5004420;28;20026;-72
2023/11/27 06:26:13;;;;;;;;;;;;;;;5.67;65.69;97255.31;5004367;28;19929;-72
2023/11/27 06:29:01;;;;;;;;;;;;;;;5.69;65.42;97239.63;5004702;28;20573;-72
2023/11/27 06:31:49;;;;;;;;;;;;;;;5.78;65.48;97240.56;5007957;28;19932;-72
2023/11/27 06:34:37;;;;;;;;;;;;;;;5.68;65.54;97246.13;5006292;28;19926;-72
2023/11/27 06:37:27;;;;;;;;;;;;;;;5.61;65.92;97243.03;5010117;28;19925;-72
2023/11/27 06:40:16;;;;;;;;;;;;;;;5.74;65.68;97234.16;5009931;28;19933;-72
2023/11/27 06:43:05;;;;;;;;;;;;;;;5.82;65.67;97229.22;5010077;28;19930;-72
2023/11/27 06:45:53;;;;;;;;;;;;;;;5.69;65.51;97228.84;5010210;28;19926;-72
2023/11/27 06:48:41;;;;;;;;;;;;;;;5.68;65.62;97231.84;5008394;28;19930;-72
2023/11/27 06:51:29;;;;;;;;;;;;;;;5.45;65.94;97230.91;5005890;28;20298;-71
2023/11/27 06:54:19;;;;;;;;;;;;;;;5.50;65.56;97228.94;5009462;28;19929;-72
2023/11/27 06:57:08;;;;;;;;;;;;;;;5.52;65.85;97220.53;5006344;28;19991;-72
2023/11/27 06:59:59;;;;;;;;;;;;;;;5.58;65.71;97227.44;5007870;28;20399;-72
2023/11/27 07:02:47;;;;;;;;;;;;;;;5.64;65.72;97211.97;5008161;28;19926;-71
2023/11/27 07:05:36;;;;;;;;;;;;;;;5.72;65.53;97209.41;5000351;28;20016;-72
2023/11/27 07:08:24;;;;;;;;;;;;;;;5.30;66.69;97206.91;5005798;28;19926;-72
2023/11/27 07:11:13;;;;;;;;;;;;;;;5.37;66.71;97199.25;5003474;28;20007;-72
2023/11/27 07:14:01;;;;;;;;;;;;;;;5.15;67.19;97194.47;5007962;28;20376;-72
2023/11/27 07:16:49;;;;;;;;;;;;;;;5.29;66.53;97194.53;5011578;28;20083;-72
2023/11/27 07:19:37;;;;;;;;;;;;;;;5.35;66.86;97187.97;4996573;28;19955;-72
2023/11/27 07:22:26;;;;;;;;;;;;;;;5.39;66.41;97186.28;5010022;28;19929;-71
2023/11/27 07:25:15;;;;;;;;;;;;;;;5.31;66.98;97190.44;5010505;28;19925;-72
2023/11/27 07:28:05;;;;;;;;;;;;;;;5.31;66.60;97176.19;5007042;28;19929;-72
2023/11/27 07:30:53;;;;;;;;;;;;;;;5.35;66.18;97177.19;5012070;28;19929;-72
2023/11/27 07:33:41;;;;;;;;;;;;;;;5.37;66.59;97173.09;5012518;28;20001;-72
2023/11/27 07:36:29;;;;;;;;;;;;;;;5.37;66.71;97164.22;5007452;28;19932;-72
2023/11/27 07:39:18;;;;;;;;;;;;;;;5.32;66.93;97164.31;5011251;28;20059;-72
2023/11/27 07:42:06;;;;;;;;;;;;;;;5.16;67.34;97164.56;5007169;28;19930;-72
2023/11/27 07:44:56;;;;;;;;;;;;;;;4.97;67.19;97161.13;5000321;28;19957;-72
2023/11/27 07:47:44;;;;;;;;;;;;;;;5.38;66.81;97155.03;5008374;28;19925;-72
2023/11/27 07:50:33;;;;;;;;;;;;;;;5.28;66.76;97149.84;5006260;28;19940;-72
2023/11/27 07:53:20;;;;;;;;;;;;;;;5.16;66.21;97139.53;5009156;28;20804;-72
2023/11/27 07:56:09;;;;;;;;;;;;;;;5.25;66.57;97146.63;5011304;28;19925;-72
2023/11/27 07:59:00;;;;;;;;;;;;;;;5.11;66.85;97153.88;5007782;28;20004;-72
2023/11/27 08:01:49;;;;;;;;;;;;;;;5.04;67.28;97137.31;4994835;28;20390;-72
2023/11/27 08:04:38;;;;;;;;;;;;;;;5.08;67.04;97127.56;5008285;28;20390;-72
2023/11/27 08:07:26;;;;;;;;;;;;;;;5.30;66.70;97128.81;5011188;28;19929;-72
2023/11/27 08:10:16;;;;;;;;;;;;;;;5.31;66.76;97128.50;5011525;28;20048;-72
2023/11/27 08:13:05;;;;;;;;;;;;;;;5.47;66.14;97129.03;5010962;28;19929;-72
2023/11/27 08:15:53;;;;;;;;;;;;;;;5.24;66.70;97126.19;5012536;28;19940;-72
2023/11/27 08:18:44;;;;;;;;;;;;;;;5.41;66.02;97116.75;4994702;28;19929;-72
2023/11/27 08:21:35;;;;;;;;;;;;;;;5.37;65.91;97123.81;5003255;28;19932;-72
2023/11/27 08:24:24;;;;;;;;;;;;;;;5.42;65.18;97124.53;5017000;28;20368;-72
2023/11/27 08:27:14;;;;;;;;;;;;;;;5.66;64.94;97126.28;4995041;28;20059;-72
2023/11/27 08:30:04;;;;;;;;;;;;;;;5.61;64.54;97126.38;5010262;28;19925;-72
2023/11/27 08:32:52;;;;;;;;;;;;;;;5.31;65.20;97122.31;5008815;28;19934;-75
2023/11/27 08:35:42;;;;;;;;;;;;;;;5.52;65.63;97118.16;5010829;28;20016;-72
2023/11/27 08:38:31;;;;;;;;;;;;;;;5.67;64.97;97109.78;5012437;28;19926;-72
2023/11/27 08:41:19;;;;;;;;;;;;;;;5.64;64.90;97109.59;5010983;28;20315;-72
2023/11/27 08:44:08;;;;;;;;;;;;;;;5.73;64.67;97100.50;5012287;28;19929;-72
2023/11/27 08:46:57;;;;;;;;;;;;;;;5.72;65.00;97096.22;5006277;28;19934;-72
2023/11/27 08:49:48;;;;;;;;;;;;;;;5.73;64.41;97097.81;4993233;28;19926;-73
2023/11/27 08:52:37;;;;;;;;;;;;;;;5.52;65.39;97092.00;5008986;28;19972;-73
2023/11/27 08:55:28;;;;;;;;;;;;;;;5.65;65.10;97081.56;4998341;28;19932;-72
2023/11/27 08:58:16;;;;;;;;;;;;;;;5.48;64.90;97074.84;5006331;28;19925;-72
2023/11/27 09:01:05;;;;;;;;;;;;;;;5.28;66.00;97082.53;5003107;28;19925;-72
2023/11/27 09:03:53;;;;;;;;;;;;;;;5.51;65.27;97073.47;5008392;28;20088;-72
2023/11/27 09:06:42;;;;;;;;;;;;;;;5.69;64.63;97083.34;4994371;28;19926;-72
2023/11/27 09:09:31;;;;;;;;;;;;;;;5.35;64.64;97069.47;5009122;28;19929;-72
2023/11/27 09:12:19;;;;;;;;;;;;;;;5.46;64.67;97065.47;5008849;28;19987;-72
2023/11/27 09:15:09;;;;;;;;;;;;;;;5.07;65.41;97068.63;5006617;28;19926;-72
2023/11/27 09:17:57;;;;;;;;;;;;;;;5.17;65.85;97066.56;5006243;28;19939;-71
2023/11/27 09:20:46;;;;;;;;;;;;;;;5.26;65.35;97061.25;5010563;28;20379;-72
2023/11/27 09:23:34;;;;;;;;;;;;;;;5.49;64.74;97052.22;5005347;28;20383;-72
2023/11/27 09:26:23;;;;;;;;;;;;;;;5.49;64.68;97049.53;5010295;28;19992;-72
2023/11/27 09:29:12;;;;;;;;;;;;;;;5.74;64.57;97048.19;5001525;28;19941;-72
2023/11/27 09:32:00;;;;;;;;;;;;;;;5.92;63.65;97040.34;5010829;28;20476;-72
2023/11/27 09:34:49;;;;;;;;;;;;;;;5.95;63.64;97039.72;5005007;28;20268;-72
2023/11/27 09:37:37;;;;;;;;;;;;;;;5.49;64.89;97032.56;5004337;28;19925;-73
2023/11/27 09:40:26;;;;;;;;;;;;;;;5.99;63.90;97022.63;5009262;28;19995;-72
2023/11/27 09:43:16;;;;;;;;;;;;;;;5.73;63.95;97022.34;5006665;28;20405;-72
2023/11/27 09:46:06;;;;;;;;;;;;;;;5.98;63.58;97014.88;5006275;28;19933;-72
2023/11/27 09:48:57;;;;;;;;;;;;;;;6.06;64.01;97016.81;5004854;28;19929;-72
2023/11/27 09:51:46;;;;;;;;;;;;;;;5.83;64.23;97012.47;5008943;28;20298;-72
2023/11/27 09:54:35;;;;;;;;;;;;;;;5.91;64.45;97009.03;5005891;28;19996;-72
2023/11/27 09:57:23;;;;;;;;;;;;;;;5.86;64.45;97004.59;5007999;28;19932;-72
2023/11/27 10:00:14;;;;;;;;;;;;;;;6.07;63.25;97001.44;5007486;28;19929;-72
2023/11/27 10:03:02;;;;;;;;;;;;;;;6.03;63.38;96993.97;5006376;28;19933;-72
2023/11/27 10:05:52;;;;;;;;;;;;;;;6.14;63.35;96989.16;5003699;28;19932;-72
2023/11/27 10:08:40;;;;;;;;;;;;;;;6.02;62.37;96980.81;5001344;28;19932;-72
2023/11/27 10:11:28;;;;;;;;;;;;;;;6.12;62.91;96979.75;5002818;28;19925;-72
2023/11/27 10:14:16;;;;;;;;;;;;;;;6.12;62.69;96969.75;5002904;28;19926;-72
2023/11/27 10:17:24;;;;;;;;;;;;;;;5.94;63.63;96962.66;5007398;28;19929;-73
2023/11/27 10:20:13;;;;;;;;;;;;;;;5.98;63.76;96953.66;5008802;28;20409;-73
2023/11/27 10:23:02;;;;;;;;;;;;;;;6.00;63.34;96940.66;5007911;28;19925;-73
2023/11/27 10:25:55;;;;;;;;;;;;;;;5.92;63.00;96944.09;5009476;28;19930;-72
2023/11/27 10:28:48;;;;;;;;;;;;;;;6.03;63.54;96933.88;5004940;28;19930;-73
2023/11/27 10:31:37;;;;;;;;;;;;;;;5.94;63.18;96925.69;5007177;28;19926;-73
2023/11/27 10:34:27;;;;;;;;;;;;;;;5.75;63.36;96916.94;5003921;28;20755;-73
2023/11/27 10:37:15;;;;;;;;;;;;;;;6.00;63.43;96908.31;5007646;28;19929;-72
2023/11/27 10:40:04;;;;;;;;;;;;;;;6.14;62.35;96902.84;5002521;28;20372;-74
2023/11/27 10:42:52;;;;;;;;;;;;;;;6.06;61.57;96894.69;5008647;28;19930;-73
2023/11/27 10:45:41;;;;;;;;;;;;;;;6.25;62.07;96888.00;4992198;28;19933;-73
2023/11/27 10:48:29;;;;;;;;;;;;;;;6.46;61.72;96882.09;5005855;28;19987;-73
2023/11/27 10:51:31;;;;;;;;;;;;;;;6.41;61.21;96868.75;5007788;28;19932;-73
2023/11/27 10:54:19;;;;;;;;;;;;;;;6.45;61.06;96858.94;5011466;28;19926;-73
2023/11/27 10:57:08;;;;;;;;;;;;;;;6.36;62.21;96844.59;5006846;28;20024;-73
2023/11/27 10:59:57;;;;;;;;;;;;;;;6.40;61.43;96845.59;5013235;28;19926;-73
2023/11/27 11:02:48;;;;;;;;;;;;;;;6.40;61.47;96838.28;5008971;28;19934;-73
2023/11/27 11:05:40;;;;;;;;;;;;;;;6.51;61.97;96846.91;5012689;28;19934;-73
2023/11/27 11:08:32;;;;;;;;;;;;;;;6.45;60.92;96840.06;5011143;28;19930;-74
2023/11/27 11:11:23;;;;;;;;;;;;;;;6.50;61.49;96829.13;5011033;28;20410;-73
2023/11/27 11:14:15;;;;;;;;;;;;;;;6.46;60.87;96828.16;5012176;28;19925;-73
2023/11/27 11:17:07;;;;;;;;;;;;;;;6.51;61.17;96826.09;5007186;28;20004;-73
2023/11/27 11:19:58;;;;;;;;;;;;;;;6.29;61.72;96818.88;5013995;28;19930;-73
2023/11/27 11:22:50;;;;;;;;;;;;;;;6.46;61.02;96811.97;5003639;28;19933;-71
2023/11/27 11:25:42;;;;;;;;;;;;;;;6.53;60.72;96804.19;5011496;28;20040;-73
2023/11/27 11:28:33;;;;;;;;;;;;;;;6.32;60.89;96795.88;5011147;28;19972;-72
2023/11/27 11:31:24;;;;;;;;;;;;;;;6.42;61.61;96800.97;5012136;28;19979;-72
2023/11/27 11:34:22;;;;;;;;;;;;;;;6.48;60.90;96798.94;5012697;28;20393;-72
2023/11/27 11:37:14;;;;;;;;;;;;;;;6.66;60.82;96783.59;5001734;28;19969;-73
2023/11/27 11:40:04;;;;;;;;;;;;;;;6.76;60.85;96784.09;5010789;28;21273;-72
2023/11/27 11:42:53;;;;;;;;;;;;;;;6.87;59.69;96773.00;5012625;28;20376;-72
2023/11/27 11:45:41;;;;;;;;;;;;;;;6.95;59.27;96764.16;5013267;28;20387;-71
2023/11/27 11:48:35;;;;;;;;;;;;;;;7.02;58.56;96749.06;5013264;28;20291;-74
2023/11/27 11:51:25;;;;;;;;;;;;;;;6.99;59.58;96759.72;5010847;28;19929;-71
2023/11/27 11:54:18;;;;;;;;;;;;;;;7.06;59.14;96741.91;5017616;28;19965;-75
2023/11/27 11:57:16;;;;;;;;;;;;;;;6.94;59.43;96732.84;5014746;28;19984;-72
2023/11/27 12:00:19;;;;;;;;;;;;;;;6.90;59.32;96724.59;5017186;28;20387;-72
2023/11/27 12:03:07;;;;;;;;;;;;;;;6.82;58.36;96718.09;5013681;28;19935;-73
2023/11/27 12:05:57;;;;;;;;;;;;;;;6.65;59.06;96711.84;5015338;28;20012;-72
2023/11/27 12:08:46;;;;;;;;;;;;;;;6.68;59.28;96701.22;5013295;28;20356;-72
2023/11/27 12:11:34;;;;;;;;;;;;;;;5.89;60.48;96688.56;5008675;28;19932;-72
2023/11/27 12:14:26;;;;;;;;;;;;;;;5.76;61.68;96670.63;5007053;28;20394;-72
2023/11/27 12:17:16;;;;;;;;;;;;;;;6.02;61.28;96673.44;5002374;28;19929;-72
2023/11/27 12:20:11;;;;;;;;;;;;;;;6.23;60.26;96663.69;5007582;28;19929;-71
2023/11/27 12:23:00;;;;;;;;;;;;;;;6.28;60.06;96663.53;5008727;28;19934;-71
2023/11/27 12:25:48;;;;;;;;;;;;;;;6.47;59.39;96657.06;5003897;28;19930;-74
2023/11/27 12:28:36;;;;;;;;;;;;;;;6.49;58.07;96661.03;5011185;28;19925;-71
2023/11/27 12:31:27;;;;;;;;;;;;;;;6.56;57.24;96650.56;5011559;28;19926;-72
2023/11/27 12:34:17;;;;;;;;;;;;;;;6.63;57.82;96654.69;5012787;28;19952;-72
2023/11/27 12:37:06;;;;;;;;;;;;;;;6.71;57.91;96656.59;5014289;28;19925;-71
2023/11/27 12:39:56;;;;;;;;;;;;;;;6.80;57.78;96647.41;4997566;28;19925;-72
2023/11/27 12:42:45;;;;;;;;;;;;;;;6.84;57.26;96634.06;5010539;28;20006;-73
2023/11/27 12:45:33;;;;;;;;;;;;;;;6.76;58.37;96626.75;5012912;28;20019;-71
2023/11/27 12:48:22;;;;;;;;;;;;;;;6.55;57.64;96610.41;5008681;28;20324;-72
2023/11/27 12:51:18;;;;;;;;;;;;;;;6.65;55.29;96602.00;5008794;28;20088;-72
2023/11/27 12:54:18;;;;;;;;;;;;;;;6.32;57.04;96590.88;5011002;28;19948;-75
2023/11/27 12:57:08;;;;;;;;;;;;;;;6.48;56.59;96575.00;5009357;28;19926;-71
2023/11/27 12:59:57;;;;;;;;;;;;;;;6.78;55.60;96567.88;5016128;28;20083;-72
2023/11/27 13:02:45;;;;;;;;;;;;;;;6.80;54.37;96568.31;5008675;28;20051;-72
2023/11/27 13:05:35;;;;;;;;;;;;;;;6.75;54.77;96563.09;5005037;28;20032;-71
2023/11/27 13:08:31;;;;;;;;;;;;;;;6.67;54.92;96548.50;5011069;28;20027;-71
2023/11/27 13:11:31;;;;;;;;;;;;;;;6.77;55.65;96548.19;5007798;28;20342;-72
2023/11/27 13:14:19;;;;;;;;;;;;;;;6.59;55.22;96535.81;5007486;28;19929;-71
2023/11/27 13:17:07;;;;;;;;;;;;;;;6.79;54.99;96526.25;5009957;28;19929;-72
2023/11/27 13:19:55;;;;;;;;;;;;;;;6.85;54.34;96518.78;5004853;28;19945;-72
2023/11/27 13:22:45;;;;;;;;;;;;;;;6.93;54.45;96504.47;5008615;28;19934;-71
2023/11/27 13:25:37;;;;;;;;;;;;;;;6.93;54.85;96491.00;5007380;28;20056;-71
2023/11/27 13:28:25;;;;;;;;;;;;;;;6.90;54.44;96483.50;5008759;28;20548;-71
2023/11/27 13:31:15;;;;;;;;;;;;;;;6.97;54.06;96481.09;5005963;28;19930;-72
2023/11/27 13:34:23;;;;;;;;;;;;;;;6.82;53.73;96480.53;5008158;28;19934;-72
2023/11/27 13:37:11;;;;;;;;;;;;;;;6.98;54.16;96469.22;5010010;28;19925;-72
2023/11/27 13:40:01;;;;;;;;;;;;;;;6.56;53.59;96466.28;5006562;28;19975;-72
2023/11/27 13:42:52;;;;;;;;;;;;;;;6.64;54.05;96460.06;5002823;28;20018;-71
2023/11/27 13:45:41;;;;;;;;;;;;;;;6.61;55.03;96449.94;5010367;28;19988;-71
2023/11/27 13:48:31;;;;;;;;;;;;;;;6.06;55.99;96442.53;5011259;28;20409;-71
2023/11/27 13:51:20;;;;;;;;;;;;;;;6.30;56.23;96445.53;5004532;28;19951;-71
2023/11/27 13:54:08;;;;;;;;;;;;;;;6.02;54.98;96437.00;5008196;28;19934;-72
2023/11/27 13:56:58;;;;;;;;;;;;;;;5.92;56.29;96441.91;5010360;28;20299;-72
2023/11/27 13:59:48;;;;;;;;;;;;;;;6.20;57.27;96432.38;4995970;28;20385;-71
2023/11/27 14:02:36;;;;;;;;;;;;;;;5.96;58.25;96424.78;5009556;28;20281;-71
2023/11/27 14:05:25;;;;;;;;;;;;;;;6.11;58.92;96428.88;5008508;28;20269;-71
2023/11/27 14:08:19;;;;;;;;;;;;;;;6.23;59.11;96431.75;5009409;28;19968;-71
2023/11/27 14:11:19;;;;;;;;;;;;;;;6.21;58.92;96438.56;4992064;28;19925;-71
2023/11/27 14:14:21;;;;;;;;;;;;;;;5.83;60.86;96433.00;5009382;28;19926;-71
2023/11/27 14:17:19;;;;;;;;;;;;;;;5.92;61.11;96420.34;5009621;28;19926;-71
2023/11/27 14:23:25;;;;;;;;;;;;;;;5.81;61.38;96425.22;5006768;28;20068;-73
2023/11/27 14:26:34;;;;;;;;;;;;;;;5.38;63.11;96419.78;5004116;28;19951;-72
2023/11/27 14:29:21;;;;;;;;;;;;;;;4.69;64.85;96420.34;5005053;28;19930;-71
2023/11/27 14:32:12;;;;;;;;;;;;;;;4.94;65.56;96413.47;5009100;28;19925;-72
2023/11/27 14:35:00;;;;;;;;;;;;;;;4.83;65.94;96404.88;5007140;28;19999;-71
2023/11/27 14:37:48;;;;;;;;;;;;;;;5.09;66.69;96396.13;5007805;28;19951;-74
2023/11/27 14:40:41;;;;;;;;;;;;;;;4.98;66.71;96387.53;5007285;28;19925;-74
2023/11/27 14:43:32;;;;;;;;;;;;;;;4.97;68.10;96380.56;5008286;28;19948;-71
2023/11/27 14:46:20;;;;;;;;;;;;;;;5.03;67.55;96381.22;5010071;28;19925;-74
2023/11/27 14:49:13;;;;;;;;;;;;;;;4.94;67.91;96378.50;5010871;28;19932;-72
2023/11/27 14:52:03;;;;;;;;;;;;;;;4.86;68.21;96368.50;5005167;28;19925;-73
2023/11/27 14:54:53;;;;;;;;;;;;;;;4.89;68.32;96359.78;5007654;28;20421;-71
2023/11/27 14:57:41;;;;;;;;;;;;;;;4.87;69.07;96364.69;5008161;28;20004;-72